Time;durP1;ratioP1;P1;durP2;ratioP2;P2;SDS_P1;SDS_P2;PMS_P1;PMS_P2;Temp;Humidity;BMP_temperature;BMP_pressure;BME280_temperature;BME280_humidity;BME280_pressure;Samples;Min_cycle;Max_cycle;Signal;HPM_P1;HPM_P2
2023/03/29 00:01:06;;;;;;;6.65;3.30;;;;;;;4.06;100.00;101583.25;4895617;29;20092;-74
2023/03/29 00:03:32;;;;;;;5.45;3.25;;;;;;;4.06;100.00;101580.63;4859177;29;20117;-74
2023/03/29 00:06:02;;;;;;;5.05;3.42;;;;;;;4.06;100.00;101578.00;4877823;29;20066;-74
2023/03/29 00:08:32;;;;;;;9.75;3.78;;;;;;;4.06;100.00;101584.13;4875018;29;20055;-74
2023/03/29 00:10:59;;;;;;;3.85;2.90;;;;;;;4.07;100.00;101571.88;4891796;29;20071;-74
2023/03/29 00:13:25;;;;;;;4.97;3.28;;;;;;;4.07;100.00;101580.63;4889279;29;20071;-75
2023/03/29 00:15:52;;;;;;;3.92;3.05;;;;;;;4.08;100.00;101574.50;4887045;29;20048;-74
2023/03/29 00:18:18;;;;;;;5.63;3.00;;;;;;;4.08;100.00;101574.50;4868190;29;20530;-74
2023/03/29 00:20:53;;;;;;;4.93;3.50;;;;;;;4.08;100.00;101564.03;4872639;29;20137;-74
2023/03/29 00:23:21;;;;;;;5.93;2.80;;;;;;;4.11;100.00;101565.75;4868748;29;20167;-74
2023/03/29 00:25:47;;;;;;;5.50;2.88;;;;;;;4.10;100.00;101563.13;4885235;29;21092;-74
2023/03/29 00:28:13;;;;;;;4.50;3.00;;;;;;;4.12;100.00;101567.50;4886113;29;20131;-75
2023/03/29 00:30:39;;;;;;;5.60;3.42;;;;;;;4.12;100.00;101567.50;4871934;29;20051;-74
2023/03/29 00:33:06;;;;;;;4.72;3.08;;;;;;;4.14;100.00;101562.25;4869349;29;20036;-75
2023/03/29 00:35:32;;;;;;;5.43;3.22;;;;;;;4.13;100.00;101553.50;4872912;29;20384;-74
2023/03/29 00:37:57;;;;;;;3.88;3.15;;;;;;;4.12;100.00;101551.75;4886251;29;20500;-74
2023/03/29 00:40:23;;;;;;;5.13;2.85;;;;;;;4.11;100.00;101539.53;4886058;29;20048;-74
2023/03/29 00:42:48;;;;;;;4.95;2.85;;;;;;;4.09;100.00;101538.69;4888744;29;20056;-75
2023/03/29 00:45:24;;;;;;;4.18;2.97;;;;;;;4.07;100.00;101535.19;4888686;29;20051;-75
2023/03/29 00:47:51;;;;;;;4.82;2.95;;;;;;;4.06;100.00;101520.34;4864075;29;20048;-75
2023/03/29 00:50:29;;;;;;;5.05;3.33;;;;;;;4.02;100.00;101514.28;4883177;29;20056;-74
2023/03/29 00:53:00;;;;;;;5.55;3.13;;;;;;;4.01;100.00;101516.91;4856680;29;20036;-74
2023/03/29 00:55:29;;;;;;;4.25;2.80;;;;;;;4.00;100.00;101521.28;4868764;29;20048;-74
2023/03/29 00:57:55;;;;;;;5.15;2.90;;;;;;;3.99;100.00;101516.94;4869608;29;20044;-74
2023/03/29 01:00:26;;;;;;;4.72;3.20;;;;;;;3.99;100.00;101513.41;4874235;29;20044;-74
2023/03/29 01:02:58;;;;;;;7.53;3.20;;;;;;;3.98;100.00;101512.53;4872578;29;20564;-74
2023/03/29 01:05:44;;;;;;;3.83;2.80;;;;;;;4.00;100.00;101507.28;4889464;29;20055;-74
2023/03/29 01:08:56;;;;;;;3.97;3.20;;;;;;;3.99;100.00;101498.59;4866148;29;20103;-74
2023/03/29 01:11:46;;;;;;;5.28;3.30;;;;;;;3.99;100.00;101505.56;4888737;29;20430;-74
2023/03/29 01:14:21;;;;;;;5.00;3.10;;;;;;;3.99;100.00;101498.59;4871527;29;20353;-74
2023/03/29 01:16:46;;;;;;;5.50;2.50;;;;;;;3.99;100.00;101495.09;4869171;29;20756;-75
2023/03/29 01:19:15;;;;;;;3.83;2.42;;;;;;;4.00;100.00;101507.28;4875907;29;20128;-75
2023/03/29 01:22:00;;;;;;;3.67;2.30;;;;;;;4.01;100.00;101506.41;4874123;29;20040;-74
2023/03/29 01:24:49;;;;;;;3.85;2.33;;;;;;;4.01;100.00;101506.41;4872452;29;20051;-74
2023/03/29 01:27:21;;;;;;;3.65;2.30;;;;;;;4.01;100.00;101501.16;4872347;29;20303;-75
2023/03/29 01:30:04;;;;;;;3.97;2.53;;;;;;;4.02;100.00;101497.66;4869104;29;20145;-74
2023/03/29 01:32:36;;;;;;;2.50;2.30;;;;;;;4.02;100.00;101497.66;4872013;29;20652;-75
2023/03/29 01:35:09;;;;;;;6.70;2.40;;;;;;;4.02;100.00;101489.81;4858802;29;20049;-74
2023/03/29 01:37:40;;;;;;;2.78;1.92;;;;;;;4.02;100.00;101484.56;4866813;29;20385;-75
2023/03/29 01:40:06;;;;;;;4.07;2.35;;;;;;;4.03;100.00;101483.72;4870217;29;20041;-75
2023/03/29 01:42:52;;;;;;;3.17;2.05;;;;;;;4.02;100.00;101479.31;4848747;29;20072;-75
2023/03/29 01:45:27;;;;;;;5.93;2.20;;;;;;;4.03;100.00;101470.59;4866967;29;20068;-75
2023/03/29 01:48:14;;;;;;;2.78;1.92;;;;;;;4.02;100.00;101456.63;4868838;29;20056;-74
2023/03/29 01:50:44;;;;;;;2.60;1.80;;;;;;;4.03;100.00;101449.63;4870458;29;20489;-75
2023/03/29 01:53:28;;;;;;;4.22;1.98;;;;;;;4.03;100.00;101442.63;4869560;29;20148;-76
2023/03/29 01:56:06;;;;;;;4.68;2.35;;;;;;;4.03;100.00;101432.16;4870800;29;20075;-74
2023/03/29 01:58:37;;;;;;;2.47;1.83;;;;;;;4.03;100.00;101432.16;4835898;29;20595;-74
2023/03/29 02:01:08;;;;;;;3.05;2.05;;;;;;;4.03;100.00;101428.69;4855747;29;20049;-75
2023/03/29 02:03:40;;;;;;;3.95;2.00;;;;;;;4.02;100.00;101419.94;4851030;29;20048;-75
2023/03/29 02:06:09;;;;;;;3.35;2.05;;;;;;;4.04;100.00;101427.78;4854314;29;20052;-74
2023/03/29 02:08:37;;;;;;;3.97;2.08;;;;;;;4.04;100.00;101428.63;4869089;29;20036;-75
2023/03/29 02:11:22;;;;;;;5.40;2.28;;;;;;;4.04;100.00;101425.16;4868501;29;20049;-75
2023/03/29 02:13:48;;;;;;;2.85;2.00;;;;;;;4.03;100.00;101429.53;4862367;29;20472;-75
2023/03/29 02:16:14;;;;;;;5.70;2.40;;;;;;;4.06;100.00;101420.78;4872853;29;20048;-75
2023/03/29 02:18:45;;;;;;;2.80;2.13;;;;;;;4.06;100.00;101415.53;4839281;29;20053;-75
2023/03/29 02:21:47;;;;;;;3.97;2.25;;;;;;;4.06;100.00;101415.53;4879673;29;20075;-75
2023/03/29 02:24:14;;;;;;;3.78;2.30;;;;;;;4.05;100.00;101412.03;4891732;29;20060;-75
2023/03/29 02:26:40;;;;;;;9.02;2.60;;;;;;;4.06;100.00;101420.78;4871741;29;20630;-75
2023/03/29 02:29:05;;;;;;;3.58;2.17;;;;;;;4.07;100.00;101420.78;4870749;29;20059;-75
2023/03/29 02:31:41;;;;;;;4.93;2.40;;;;;;;4.08;100.00;101411.13;4886844;29;20051;-74
2023/03/29 02:34:36;;;;;;;3.78;2.35;;;;;;;4.08;100.00;101401.53;4869297;29;20048;-75
2023/03/29 02:37:05;;;;;;;4.45;2.22;;;;;;;4.08;100.00;101406.78;4890043;29;20446;-74
2023/03/29 02:39:32;;;;;;;6.20;2.50;;;;;;;4.08;100.00;101408.50;4870265;29;20044;-75
2023/03/29 02:41:58;;;;;;;3.38;1.85;;;;;;;4.10;100.00;101406.78;4868579;29;20159;-75
2023/03/29 02:44:26;;;;;;;5.15;2.15;;;;;;;4.09;100.00;101410.28;4877475;29;20648;-75
2023/03/29 02:46:56;;;;;;;3.55;2.50;;;;;;;4.08;100.00;101406.78;4870625;29;20044;-75
2023/03/29 02:49:22;;;;;;;5.03;2.60;;;;;;;4.10;100.00;101409.41;4872858;29;20392;-74
2023/03/29 02:51:51;;;;;;;3.55;2.30;;;;;;;4.11;100.00;101410.25;4870602;29;20047;-75
2023/03/29 02:54:18;;;;;;;4.88;2.40;;;;;;;4.10;100.00;101396.28;4868023;29;20048;-75
2023/03/29 02:56:53;;;;;;;3.30;2.13;;;;;;;4.10;100.00;101401.53;4870629;29;20127;-75
2023/03/29 02:59:19;;;;;;;7.00;2.83;;;;;;;4.11;100.00;101397.13;4877695;29;20075;-73
2023/03/29 03:01:44;;;;;;;3.22;2.10;;;;;;;4.10;100.00;101396.28;4884364;29;20136;-75
2023/03/29 03:04:14;;;;;;;4.03;2.22;;;;;;;4.12;100.00;101394.50;4887004;29;20079;-74
2023/03/29 03:06:40;;;;;;;4.20;2.40;;;;;;;4.12;100.00;101391.91;4888295;29;20712;-74
2023/03/29 03:09:06;;;;;;;3.80;2.53;;;;;;;4.13;100.00;101388.38;4891432;29;20079;-74
2023/03/29 03:11:32;;;;;;;5.65;2.55;;;;;;;4.13;100.00;101379.66;4889067;29;20056;-74
2023/03/29 03:13:58;;;;;;;4.50;2.58;;;;;;;4.13;100.00;101375.28;4892004;29;20099;-75
2023/03/29 03:16:24;;;;;;;3.45;2.55;;;;;;;4.12;100.00;101378.78;4881951;29;20566;-74
2023/03/29 03:18:51;;;;;;;4.25;2.45;;;;;;;4.14;100.00;101365.69;4874982;29;20131;-74
2023/03/29 03:21:17;;;;;;;5.47;2.65;;;;;;;4.15;100.00;101367.41;4870378;29;20075;-74
2023/03/29 03:23:44;;;;;;;4.22;2.60;;;;;;;4.15;100.00;101365.63;4888416;29;20140;-74
2023/03/29 03:26:11;;;;;;;3.78;2.67;;;;;;;4.16;100.00;101348.19;4874109;29;20051;-74
2023/03/29 03:28:37;;;;;;;3.67;2.50;;;;;;;4.17;100.00;101347.28;4886174;29;20044;-74
2023/03/29 03:31:03;;;;;;;4.18;2.85;;;;;;;4.18;100.00;101354.25;4891400;29;20068;-74
2023/03/29 03:33:29;;;;;;;5.65;2.90;;;;;;;4.18;100.00;101347.28;4888577;29;20040;-74
2023/03/29 03:36:05;;;;;;;4.38;2.47;;;;;;;4.17;100.00;101350.78;4870461;29;20649;-74
2023/03/29 03:38:32;;;;;;;4.40;2.60;;;;;;;4.18;100.00;101355.13;4867439;29;20051;-74
2023/03/29 03:40:58;;;;;;;5.10;2.90;;;;;;;4.18;100.00;101352.53;4872072;29;20183;-75
2023/03/29 03:43:24;;;;;;;4.70;3.05;;;;;;;4.19;100.00;101350.75;4871067;29;20056;-74
2023/03/29 03:45:50;;;;;;;5.22;2.63;;;;;;;4.19;100.00;101349.00;4873114;29;20051;-74
2023/03/29 03:48:16;;;;;;;4.63;2.72;;;;;;;4.18;100.00;101347.28;4889330;29;20063;-74
2023/03/29 03:50:48;;;;;;;5.07;2.58;;;;;;;4.20;100.00;101350.75;4874357;29;20412;-74
2023/03/29 03:53:13;;;;;;;4.75;2.47;;;;;;;4.21;100.00;101344.59;4887375;29;20056;-75
2023/03/29 03:55:39;;;;;;;4.13;2.95;;;;;;;4.20;100.00;101345.50;4893917;29;20067;-74
2023/03/29 03:58:06;;;;;;;3.72;2.70;;;;;;;4.22;100.00;101353.34;4870874;29;20052;-74
2023/03/29 04:00:32;;;;;;;4.97;2.42;;;;;;;4.23;100.00;101347.22;4885878;29;20124;-74
2023/03/29 04:02:57;;;;;;;4.80;2.88;;;;;;;4.24;100.00;101346.34;4889264;29;20111;-74
2023/03/29 04:05:23;;;;;;;5.07;3.03;;;;;;;4.24;100.00;101343.72;4874994;29;20433;-74
2023/03/29 04:07:48;;;;;;;4.13;2.63;;;;;;;4.25;100.00;101337.56;4888871;29;20040;-74
2023/03/29 04:10:14;;;;;;;5.65;2.33;;;;;;;4.25;100.00;101336.72;4888347;29;20044;-74
2023/03/29 04:12:40;;;;;;;8.23;2.97;;;;;;;4.24;100.00;101327.97;4890995;29;20089;-74
2023/03/29 04:15:06;;;;;;;5.28;2.95;;;;;;;4.25;100.00;101326.25;4874980;29;20060;-74
2023/03/29 04:17:32;;;;;;;5.07;2.95;;;;;;;4.24;100.00;101320.13;4869460;29;20084;-74
2023/03/29 04:19:57;;;;;;;4.60;3.08;;;;;;;4.25;100.00;101326.25;4888843;29;20671;-74
2023/03/29 04:22:26;;;;;;;5.68;3.25;;;;;;;4.26;100.00;101325.34;4869530;29;20647;-74
2023/03/29 04:24:51;;;;;;;5.65;3.13;;;;;;;4.26;100.00;101317.50;4872684;29;20179;-74
2023/03/29 04:27:17;;;;;;;5.50;3.35;;;;;;;4.25;100.00;101321.84;4875498;29;20472;-74
2023/03/29 04:29:43;;;;;;;4.35;2.88;;;;;;;4.27;100.00;101324.47;4874936;29;20060;-74
2023/03/29 04:32:10;;;;;;;4.25;2.92;;;;;;;4.27;100.00;101322.72;4888058;29;20129;-74
2023/03/29 04:34:37;;;;;;;5.45;3.38;;;;;;;4.27;100.00;101321.84;4871975;29;20610;-74
2023/03/29 04:37:09;;;;;;;5.15;2.92;;;;;;;4.28;100.00;101315.72;4889627;29;20048;-74
2023/03/29 04:39:37;;;;;;;4.70;3.10;;;;;;;4.28;100.00;101313.09;4869310;29;20655;-75
2023/03/29 04:42:07;;;;;;;4.93;3.05;;;;;;;4.29;100.00;101317.44;4866627;29;20078;-75
2023/03/29 04:44:33;;;;;;;7.45;3.42;;;;;;;4.29;100.00;101313.06;4888602;29;20108;-75
2023/03/29 04:46:59;;;;;;;5.82;3.53;;;;;;;4.30;100.00;101316.59;4890069;29;20059;-75
2023/03/29 04:49:25;;;;;;;6.28;3.60;;;;;;;4.30;100.00;101322.66;4887748;29;20056;-75
2023/03/29 04:51:52;;;;;;;6.75;3.20;;;;;;;4.31;100.00;101310.44;4893706;29;20080;-74
2023/03/29 04:54:17;;;;;;;5.78;3.03;;;;;;;4.33;100.00;101319.16;4872898;29;20144;-73
2023/03/29 04:56:43;;;;;;;6.22;3.72;;;;;;;4.32;100.00;101314.81;4868198;29;20056;-75
2023/03/29 04:59:08;;;;;;;6.95;3.83;;;;;;;4.33;100.00;101313.91;4886675;29;20048;-74
2023/03/29 05:01:34;;;;;;;5.28;3.80;;;;;;;4.33;100.00;101308.66;4887470;29;20059;-74
2023/03/29 05:04:01;;;;;;;6.70;3.83;;;;;;;4.34;100.00;101306.03;4867936;29;20051;-74
2023/03/29 05:06:28;;;;;;;9.45;3.97;;;;;;;4.34;100.00;101313.00;4889912;29;20079;-74
2023/03/29 05:08:54;;;;;;;9.45;4.88;;;;;;;4.34;100.00;101307.78;4875032;29;20056;-74
2023/03/29 05:11:20;;;;;;;7.45;4.30;;;;;;;4.35;100.00;101312.13;4876466;29;20412;-74
2023/03/29 05:13:45;;;;;;;8.70;4.75;;;;;;;4.35;100.00;101309.50;4893796;29;20355;-74
2023/03/29 05:16:11;;;;;;;8.55;4.70;;;;;;;4.35;100.00;101305.16;4871538;29;20100;-74
2023/03/29 05:18:36;;;;;;;8.93;5.22;;;;;;;4.35;100.00;101310.38;4894012;29;20040;-75
2023/03/29 05:21:02;;;;;;;8.32;4.80;;;;;;;4.35;100.00;101306.88;4879154;29;20048;-75
2023/03/29 05:23:29;;;;;;;10.07;5.68;;;;;;;4.36;100.00;101313.84;4894742;29;20064;-75
2023/03/29 05:25:55;;;;;;;9.57;5.53;;;;;;;4.36;100.00;101313.84;4892725;29;20044;-74
2023/03/29 05:28:21;;;;;;;9.60;5.30;;;;;;;4.36;100.00;101313.84;4895849;29;20059;-75
2023/03/29 05:30:52;;;;;;;12.63;5.60;;;;;;;4.37;100.00;101315.63;4895032;29;20048;-75
2023/03/29 05:33:18;;;;;;;12.35;5.70;;;;;;;4.37;100.00;101307.75;4878649;29;20147;-75
2023/03/29 05:35:43;;;;;;;9.50;5.50;;;;;;;4.38;100.00;101311.22;4895728;29;20124;-75
2023/03/29 05:38:09;;;;;;;8.60;5.32;;;;;;;4.39;100.00;101310.34;4888911;29;20555;-74
2023/03/29 05:40:34;;;;;;;10.68;5.72;;;;;;;4.39;100.00;101319.09;4871999;29;20063;-74
2023/03/29 05:43:01;;;;;;;10.10;5.85;;;;;;;4.40;100.00;101309.47;4889797;29;20044;-74
2023/03/29 05:45:28;;;;;;;9.07;5.63;;;;;;;4.41;100.00;101300.72;4887089;29;20056;-74
2023/03/29 05:47:54;;;;;;;9.73;6.30;;;;;;;4.43;100.00;101306.81;4885215;29;20453;-74
2023/03/29 05:50:19;;;;;;;12.27;6.38;;;;;;;4.43;100.00;101312.94;4873580;29;20580;-74
2023/03/29 05:52:46;;;;;;;12.43;6.35;;;;;;;4.44;100.00;101314.66;4891228;29;20049;-74
2023/03/29 05:55:11;;;;;;;11.15;6.38;;;;;;;4.45;100.00;101312.88;4893514;29;20052;-75
2023/03/29 05:57:37;;;;;;;12.57;6.55;;;;;;;4.45;100.00;101313.75;4886612;29;20055;-74
2023/03/29 06:00:14;;;;;;;10.25;6.15;;;;;;;4.46;100.00;101312.88;4899826;29;20048;-74
2023/03/29 06:02:40;;;;;;;10.30;5.95;;;;;;;4.48;100.00;101316.34;4893056;29;20421;-74
2023/03/29 06:05:06;;;;;;;11.32;6.30;;;;;;;4.49;100.00;101304.94;4887952;29;20047;-74
2023/03/29 06:07:32;;;;;;;9.80;5.63;;;;;;;4.52;100.00;101311.06;4871430;29;20036;-74
2023/03/29 06:09:57;;;;;;;10.52;6.28;;;;;;;4.52;100.00;101311.91;4871177;29;20120;-75
2023/03/29 06:12:23;;;;;;;11.20;6.43;;;;;;;4.55;100.00;101304.03;4892467;29;20044;-74
2023/03/29 06:14:50;;;;;;;10.43;6.32;;;;;;;4.57;100.00;101306.66;4895858;29;20055;-75
2023/03/29 06:17:16;;;;;;;11.35;6.55;;;;;;;4.62;100.00;101307.44;4891612;29;20079;-73
2023/03/29 06:19:43;;;;;;;11.48;6.13;;;;;;;4.63;100.00;101306.53;4889607;29;21654;-73
2023/03/29 06:22:08;;;;;;;11.48;6.53;;;;;;;4.67;100.00;101303.00;4891340;29;20040;-73
2023/03/29 06:24:34;;;;;;;12.23;6.80;;;;;;;4.69;100.00;101301.22;4892328;29;20050;-73
2023/03/29 06:27:00;;;;;;;10.07;6.20;;;;;;;4.71;100.00;101304.69;4872166;29;20457;-73
2023/03/29 06:29:25;;;;;;;12.32;6.50;;;;;;;4.73;100.00;101305.53;4892605;29;20615;-73
2023/03/29 06:31:53;;;;;;;9.38;5.88;;;;;;;4.74;100.00;101299.41;4888131;29;20052;-73
2023/03/29 06:34:18;;;;;;;15.00;6.65;;;;;;;4.79;100.00;101306.34;4887894;29;20068;-72
2023/03/29 06:36:44;;;;;;;10.38;6.25;;;;;;;4.81;100.00;101312.44;4896559;29;20044;-72
2023/03/29 06:39:10;;;;;;;10.98;6.10;;;;;;;4.82;100.00;101307.19;4874954;29;20039;-74
2023/03/29 06:41:35;;;;;;;11.30;5.75;;;;;;;4.84;100.00;101313.25;4876320;29;20820;-73
2023/03/29 06:44:02;;;;;;;13.57;6.50;;;;;;;4.88;100.00;101308.84;4892599;29;20513;-74
2023/03/29 06:46:28;;;;;;;10.38;5.95;;;;;;;4.91;100.00;101306.19;4875829;29;20062;-72
2023/03/29 06:48:54;;;;;;;12.90;7.18;;;;;;;4.93;100.00;101307.03;4876826;29;20055;-73
2023/03/29 06:51:20;;;;;;;10.68;5.88;;;;;;;4.98;100.00;101307.81;4876471;29;20044;-73
2023/03/29 06:53:46;;;;;;;10.02;5.63;;;;;;;5.01;100.00;101320.88;4894205;29;20045;-73
2023/03/29 06:56:11;;;;;;;11.48;5.78;;;;;;;5.05;100.00;101323.50;4869208;29;20058;-73
2023/03/29 06:58:37;;;;;;;11.13;5.93;;;;;;;5.08;100.00;101312.94;4892616;29;20055;-73
2023/03/29 07:01:03;;;;;;;9.50;5.93;;;;;;;5.11;100.00;101312.88;4888351;29;20499;-72
2023/03/29 07:03:29;;;;;;;11.82;6.25;;;;;;;5.16;100.00;101317.19;4872399;29;20052;-75
2023/03/29 07:06:08;;;;;;;11.15;6.43;;;;;;;5.21;100.00;101324.09;4874065;29;20055;-75
2023/03/29 07:08:36;;;;;;;12.48;6.35;;;;;;;5.26;100.00;101317.91;4875100;29;20045;-76
2023/03/29 07:11:02;;;;;;;12.10;5.90;;;;;;;5.31;100.00;101317.81;4890047;29;20572;-75
2023/03/29 07:13:27;;;;;;;10.30;6.03;;;;;;;5.35;100.00;101316.03;4892430;29;20484;-75
2023/03/29 07:15:53;;;;;;;9.20;5.75;;;;;;;5.39;100.00;101315.09;4874981;29;20131;-76
2023/03/29 07:18:18;;;;;;;11.55;6.53;;;;;;;5.44;100.00;101322.00;4897746;29;20256;-76
2023/03/29 07:20:44;;;;;;;11.48;6.40;;;;;;;5.49;100.00;101324.53;4868188;29;20637;-75
2023/03/29 07:23:10;;;;;;;9.35;5.68;;;;;;;5.53;100.00;101320.97;4872012;29;20065;-74
2023/03/29 07:25:36;;;;;;;10.20;6.18;;;;;;;5.58;100.00;101324.38;4873827;29;21068;-74
2023/03/29 07:28:02;;;;;;;9.07;5.88;;;;;;;5.63;100.00;101321.69;4892788;29;20079;-75
2023/03/29 07:30:29;;;;;;;10.50;5.80;;;;;;;5.69;100.00;101323.34;4878388;29;20088;-75
2023/03/29 07:32:56;;;;;;;11.20;6.28;;;;;;;5.75;100.00;101325.84;4882422;29;21048;-74
2023/03/29 07:35:22;;;;;;;11.82;6.43;;;;;;;5.79;100.00;101330.19;4894060;29;20063;-74
2023/03/29 07:37:47;;;;;;;16.58;7.05;;;;;;;5.85;100.00;101332.66;4889590;29;20112;-74
2023/03/29 07:40:17;;;;;;;10.52;5.95;;;;;;;5.89;100.00;101332.63;4893259;29;20040;-73
2023/03/29 07:42:46;;;;;;;12.23;5.90;;;;;;;5.94;100.00;101331.66;4892318;29;20048;-75
2023/03/29 07:45:15;;;;;;;9.60;5.95;;;;;;;5.98;100.00;101335.09;4891658;29;20112;-75
2023/03/29 07:47:43;;;;;;;10.07;5.43;;;;;;;6.02;100.00;101343.78;4894323;29;20040;-75
2023/03/29 07:50:09;;;;;;;10.43;5.63;;;;;;;6.07;100.00;101347.22;4893762;29;20035;-75
2023/03/29 07:52:37;;;;;;;8.02;5.85;;;;;;;6.10;100.00;101341.94;4876666;29;20052;-75
2023/03/29 07:55:04;;;;;;;11.32;5.93;;;;;;;6.14;100.00;101348.00;4888890;29;20138;-75
2023/03/29 07:57:29;;;;;;;8.40;4.85;;;;;;;6.16;100.00;101351.44;4894154;29;20452;-75
2023/03/29 07:59:55;;;;;;;11.18;5.40;;;;;;;6.20;100.00;101348.72;4891483;29;20100;-75
2023/03/29 08:02:21;;;;;;;8.70;5.10;;;;;;;6.25;100.00;101346.00;4871759;29;22031;-74
2023/03/29 08:04:46;;;;;;;9.77;5.55;;;;;;;6.30;100.00;101348.53;4885386;29;20622;-73
2023/03/29 08:07:13;;;;;;;9.52;5.55;;;;;;;6.35;100.00;101344.94;4875916;29;20649;-73
2023/03/29 08:09:39;;;;;;;9.52;5.30;;;;;;;6.41;100.00;101345.69;4896909;29;20040;-74
2023/03/29 08:12:05;;;;;;;7.70;5.13;;;;;;;6.44;100.00;101346.53;4896217;29;20051;-74
2023/03/29 08:14:30;;;;;;;8.90;4.53;;;;;;;6.51;100.00;101344.63;4880935;29;20048;-75
2023/03/29 08:16:56;;;;;;;9.75;5.35;;;;;;;6.56;100.00;101336.63;4868682;29;20503;-74
2023/03/29 08:19:21;;;;;;;7.63;4.88;;;;;;;6.59;100.00;101339.22;4869144;29;20056;-74
2023/03/29 08:21:47;;;;;;;9.35;5.13;;;;;;;6.64;100.00;101338.22;4868022;29;20045;-74
2023/03/29 08:24:13;;;;;;;9.80;5.78;;;;;;;6.70;100.00;101339.00;4886250;29;20049;-74
2023/03/29 08:26:39;;;;;;;8.00;5.05;;;;;;;6.74;100.00;101338.00;4865997;29;20048;-74
2023/03/29 08:29:05;;;;;;;10.13;5.70;;;;;;;6.79;100.00;101328.25;4883638;29;20593;-74
2023/03/29 08:31:31;;;;;;;8.65;4.65;;;;;;;6.85;100.00;101336.03;4883893;29;21530;-74
2023/03/29 08:33:56;;;;;;;9.23;5.38;;;;;;;6.90;100.00;101318.38;4882816;29;20992;-74
2023/03/29 08:36:22;;;;;;;8.32;5.38;;;;;;;6.97;100.00;101320.88;4885525;29;20066;-74
2023/03/29 08:38:49;;;;;;;9.75;5.65;;;;;;;7.03;100.00;101326.00;4884664;29;20134;-74
2023/03/29 08:41:26;;;;;;;8.50;5.18;;;;;;;7.09;100.00;101324.97;4866202;29;20041;-74
2023/03/29 08:43:58;;;;;;;10.73;5.88;;;;;;;7.15;100.00;101320.41;4860898;29;20507;-73
2023/03/29 08:46:43;;;;;;;10.95;6.22;;;;;;;7.24;100.00;101318.50;4884903;29;20055;-75
2023/03/29 08:49:09;;;;;;;11.82;6.38;;;;;;;7.30;100.00;101315.72;4866733;29;21891;-75
2023/03/29 08:51:38;;;;;;;11.70;6.05;;;;;;;7.36;100.00;101315.56;4883996;29;20044;-75
2023/03/29 08:54:11;;;;;;;10.02;5.65;;;;;;;7.41;100.00;101318.94;4883593;29;20048;-73
2023/03/29 08:56:38;;;;;;;9.25;5.82;;;;;;;7.48;100.00;101324.94;4884530;29;20049;-74
2023/03/29 08:59:05;;;;;;;9.93;5.68;;;;;;;7.54;100.00;101319.50;4883419;29;20187;-73
2023/03/29 09:01:34;;;;;;;9.20;5.45;;;;;;;7.60;100.00;101307.94;4880423;29;20504;-73
2023/03/29 09:04:09;;;;;;;9.75;5.57;;;;;;;7.66;100.00;101305.16;4850950;29;20059;-74
2023/03/29 09:06:34;;;;;;;12.98;5.95;;;;;;;7.72;100.00;101297.09;4870445;29;20126;-74
2023/03/29 09:09:00;;;;;;;8.15;5.13;;;;;;;7.79;100.00;101296.94;4881615;29;20059;-73
2023/03/29 09:12:03;;;;;;;9.18;5.68;;;;;;;7.86;100.00;101290.59;4884680;29;20068;-73
2023/03/29 09:14:42;;;;;;;11.20;5.95;;;;;;;7.92;100.00;101298.34;4882993;29;20931;-73
2023/03/29 09:17:29;;;;;;;9.18;5.97;;;;;;;7.98;100.00;101292.88;4884454;29;20088;-73
2023/03/29 09:20:13;;;;;;;9.32;5.90;;;;;;;8.06;100.00;101305.00;4846760;29;20064;-74
2023/03/29 09:22:51;;;;;;;9.23;5.95;;;;;;;8.12;100.00;101308.31;4866236;29;20235;-73
2023/03/29 09:25:29;;;;;;;9.88;5.45;;;;;;;8.19;100.00;101300.22;4883925;29;20052;-74
2023/03/29 09:28:10;;;;;;;9.48;5.75;;;;;;;8.27;100.00;101296.47;4869010;29;20492;-74
2023/03/29 09:30:40;;;;;;;10.68;5.38;;;;;;;8.32;100.00;101301.63;4867559;29;20151;-73
2023/03/29 09:33:41;;;;;;;9.15;5.53;;;;;;;8.38;100.00;101312.00;4883239;29;20083;-73
2023/03/29 09:36:23;;;;;;;11.95;5.90;;;;;;;8.43;100.00;101309.22;4839004;29;20139;-73
2023/03/29 09:38:52;;;;;;;9.05;5.82;;;;;;;8.52;100.00;101316.91;4873552;29;20044;-73
2023/03/29 09:41:21;;;;;;;15.00;6.38;;;;;;;8.60;100.00;101307.91;4856691;29;20107;-73
2023/03/29 09:43:48;;;;;;;11.90;5.85;;;;;;;8.63;100.00;101311.31;4881984;29;20084;-73
2023/03/29 09:46:24;;;;;;;11.07;6.28;;;;;;;8.67;100.00;101309.44;4876432;29;20131;-73
2023/03/29 09:48:50;;;;;;;12.25;6.57;;;;;;;8.65;100.00;101313.88;4860711;29;20083;-73
2023/03/29 09:51:18;;;;;;;10.57;6.60;;;;;;;8.65;100.00;101313.88;4873589;29;20081;-74
2023/03/29 09:53:45;;;;;;;11.05;6.72;;;;;;;8.66;100.00;101313.00;4859583;29;20785;-73
2023/03/29 09:56:14;;;;;;;9.13;6.00;;;;;;;8.68;100.00;101313.81;4861327;29;21147;-73
2023/03/29 09:58:41;;;;;;;10.82;6.30;;;;;;;8.71;100.00;101305.78;4873858;29;20077;-74
2023/03/29 10:01:10;;;;;;;11.43;5.95;;;;;;;8.74;100.00;101296.91;4861590;29;20674;-74
2023/03/29 10:03:37;;;;;;;11.65;6.38;;;;;;;8.80;100.00;101283.53;4873042;29;20486;-73
2023/03/29 10:06:06;;;;;;;14.32;7.43;;;;;;;8.86;100.00;101290.38;4861447;29;20048;-73
2023/03/29 10:08:38;;;;;;;12.43;7.00;;;;;;;8.96;100.00;101297.13;4876945;29;20119;-73
2023/03/29 10:11:12;;;;;;;12.25;6.93;;;;;;;9.07;100.00;101302.06;4860862;29;20052;-74
2023/03/29 10:13:43;;;;;;;10.82;6.75;;;;;;;9.14;100.00;101292.19;4860272;29;20083;-74
2023/03/29 10:16:17;;;;;;;12.60;7.20;;;;;;;9.20;100.00;101286.66;4860706;29;20052;-74
2023/03/29 10:18:43;;;;;;;12.70;7.72;;;;;;;9.30;100.00;101274.03;4871630;29;20036;-73
2023/03/29 10:21:15;;;;;;;17.15;7.95;;;;;;;9.36;100.00;101273.81;4878417;29;20125;-73
2023/03/29 10:23:41;;;;;;;13.93;8.40;;;;;;;9.46;100.00;101287.59;4874210;29;20056;-74
2023/03/29 10:26:22;;;;;;;19.05;8.65;;;;;;;9.51;100.00;101283.91;4858475;29;20809;-73
2023/03/29 10:28:51;;;;;;;12.63;7.82;;;;;;;9.55;100.00;101292.59;4872566;29;20806;-73
2023/03/29 10:31:19;;;;;;;12.68;7.57;;;;;;;9.60;100.00;101290.63;4862943;29;20040;-73
2023/03/29 10:33:53;;;;;;;13.85;8.48;;;;;;;9.72;100.00;101291.13;4853031;29;20072;-73
2023/03/29 10:36:20;;;;;;;13.95;7.68;;;;;;;9.79;100.00;101292.66;4870492;29;20266;-73
2023/03/29 10:38:46;;;;;;;16.10;8.57;;;;;;;9.85;100.00;101289.78;4878116;29;20044;-73
2023/03/29 10:41:14;;;;;;;15.25;7.95;;;;;;;9.86;100.00;101283.56;4857470;29;20541;-73
2023/03/29 10:43:49;;;;;;;16.63;8.63;;;;;;;9.92;100.00;101283.34;4860232;29;20134;-73
2023/03/29 10:46:24;;;;;;;14.98;8.45;;;;;;;9.98;100.00;101282.25;4858099;29;20063;-72
2023/03/29 10:48:56;;;;;;;14.38;8.43;;;;;;;10.04;100.00;101283.84;4875828;29;20044;-73
2023/03/29 10:51:22;;;;;;;11.82;7.63;;;;;;;10.14;100.00;101271.16;4862088;29;21355;-73
2023/03/29 10:53:48;;;;;;;19.38;8.57;;;;;;;10.27;100.00;101276.84;4877409;29;20583;-73
2023/03/29 10:56:39;;;;;;;15.27;8.05;;;;;;;10.29;100.00;101275.00;4858173;29;20189;-74
2023/03/29 10:59:08;;;;;;;16.02;7.72;;;;;;;10.33;100.00;101266.91;4872115;29;20127;-73
2023/03/29 11:01:48;;;;;;;16.65;8.65;;;;;;;10.41;100.00;101276.34;4874812;29;20403;-74
2023/03/29 11:04:29;;;;;;;18.23;8.82;;;;;;;10.41;100.00;101266.59;4868918;29;20040;-73
2023/03/29 11:07:21;;;;;;;18.88;8.88;;;;;;;10.45;100.00;101270.00;4856125;29;20048;-73
2023/03/29 11:10:05;;;;;;;19.20;8.38;;;;;;;10.48;100.00;101269.03;4868678;29;20600;-74
2023/03/29 11:12:34;;;;;;;17.08;9.05;;;;;;;10.48;100.00;101274.34;4857438;29;20052;-73
2023/03/29 11:15:28;;;;;;;16.75;8.95;;;;;;;10.54;100.00;101271.44;4867198;29;20131;-73
2023/03/29 11:17:53;;;;;;;17.52;8.98;;;;;;;10.60;100.00;101284.47;4870682;29;20708;-73
2023/03/29 11:20:41;;;;;;;14.98;8.98;;;;;;;10.66;100.00;101281.56;4860365;29;20044;-73
2023/03/29 11:23:24;;;;;;;14.98;7.93;;;;;;;10.73;100.00;101275.13;4870522;29;20115;-73
2023/03/29 11:25:53;;;;;;;19.23;9.07;;;;;;;10.77;100.00;101286.44;4875147;29;20514;-73
2023/03/29 11:28:41;;;;;;;17.42;9.18;;;;;;;10.82;100.00;101288.91;4869684;29;20104;-74
2023/03/29 11:31:12;;;;;;;17.83;9.25;;;;;;;10.78;100.00;101288.16;4859747;29;20071;-73
2023/03/29 11:33:50;;;;;;;17.55;9.18;;;;;;;10.75;100.00;101282.13;4873097;29;21486;-73